Time;durP1;ratioP1;P1;durP2;ratioP2;P2;SDS_P1;SDS_P2;PMS_P1;PMS_P2;Temp;Humidity;BMP_temperature;BMP_pressure;BME280_temperature;BME280_humidity;BME280_pressure;Samples;Min_cycle;Max_cycle;Signal;HPM_P1;HPM_P2
2022/08/09 00:00:19;;;;;;;;;;;;;;;16.15;88.12;99751.44;5100298;27;19974;-81
2022/08/09 00:02:46;;;;;;;;;;;;;;;16.12;88.49;99738.38;5099934;27;19927;-82
2022/08/09 00:05:17;;;;;;;;;;;;;;;16.03;88.38;99725.25;5101502;27;19931;-82
2022/08/09 00:08:05;;;;;;;;;;;;;;;15.94;88.67;99715.94;5105828;27;20026;-82
2022/08/09 00:10:36;;;;;;;;;;;;;;;15.83;89.11;99706.06;5116621;27;20290;-82
2022/08/09 00:13:05;;;;;;;;;;;;;;;15.73;89.15;99719.63;5116564;27;19931;-80
2022/08/09 00:15:44;;;;;;;;;;;;;;;15.64;89.37;99732.84;5135174;27;20034;-83
2022/08/09 00:18:29;;;;;;;;;;;;;;;15.57;89.54;99738.50;5102307;27;19927;-82
2022/08/09 00:21:04;;;;;;;;;;;;;;;15.52;89.85;99743.91;5134874;27;19967;-82
2022/08/09 00:23:34;;;;;;;;;;;;;;;15.50;89.83;99735.19;5135076;27;19928;-83
2022/08/09 00:26:21;;;;;;;;;;;;;;;15.49;89.96;99729.97;5135034;27;19927;-83
2022/08/09 00:29:05;;;;;;;;;;;;;;;15.42;90.03;99722.06;5135222;27;20294;-83
2022/08/09 00:31:38;;;;;;;;;;;;;;;15.38;90.36;99712.75;5084475;27;19927;-82
2022/08/09 00:34:25;;;;;;;;;;;;;;;15.33;90.60;99705.38;5120086;27;19978;-83
2022/08/09 00:36:59;;;;;;;;;;;;;;;15.31;90.73;99693.13;5101311;27;19932;-83
2022/08/09 00:39:25;;;;;;;;;;;;;;;15.28;90.55;99699.91;5150489;27;20335;-82
2022/08/09 00:42:12;;;;;;;;;;;;;;;15.23;90.57;99708.00;5136634;27;20054;-81
2022/08/09 00:44:59;;;;;;;;;;;;;;;15.17;90.74;99723.47;5151499;27;20613;-81
2022/08/09 00:47:41;;;;;;;;;;;;;;;15.17;90.81;99745.22;5126813;27;20097;-82
2022/08/09 00:50:09;;;;;;;;;;;;;;;15.18;90.73;99749.56;5144300;27;19927;-81
2022/08/09 00:52:40;;;;;;;;;;;;;;;15.17;90.97;99744.41;5138932;27;19934;-84
2022/08/09 00:55:07;;;;;;;;;;;;;;;15.14;91.02;99748.44;5099075;27;19934;-85
2022/08/09 00:57:42;;;;;;;;;;;;;;;15.13;91.39;99745.97;5134521;27;20398;-84
2022/08/09 01:00:16;;;;;;;;;;;;;;;15.11;91.31;99739.97;5134366;27;20002;-86
2022/08/09 01:03:11;;;;;;;;;;;;;;;15.11;91.35;99740.78;5139897;27;19931;-84
2022/08/09 01:05:51;;;;;;;;;;;;;;;15.08;91.43;99737.75;5115064;27;19981;-83
2022/08/09 01:08:33;;;;;;;;;;;;;;;15.08;91.52;99744.03;5127276;27;20305;-85
2022/08/09 01:11:07;;;;;;;;;;;;;;;15.13;91.24;99749.50;5127080;27;19934;-84
2022/08/09 01:13:51;;;;;;;;;;;;;;;15.13;91.24;99763.09;5111119;27;20415;-84
2022/08/09 01:16:27;;;;;;;;;;;;;;;15.15;91.37;99760.94;5144970;27;19930;-85
2022/08/09 01:18:54;;;;;;;;;;;;;;;15.17;91.40;99755.28;5143467;27;19927;-84
2022/08/09 01:21:50;;;;;;;;;;;;;;;15.17;91.34;99753.38;5094698;27;19933;-85
2022/08/09 01:24:38;;;;;;;;;;;;;;;15.19;91.34;99758.53;5110843;27;20406;-84
2022/08/09 01:27:10;;;;;;;;;;;;;;;15.24;91.19;99755.03;5142103;27;19977;-84
2022/08/09 01:29:51;;;;;;;;;;;;;;;15.25;91.14;99746.66;5125801;27;19955;-84
2022/08/09 01:32:25;;;;;;;;;;;;;;;15.29;91.01;99753.22;5144289;27;20018;-84
2022/08/09 01:35:01;;;;;;;;;;;;;;;15.32;90.72;99765.47;5124086;27;19933;-84
2022/08/09 01:37:53;;;;;;;;;;;;;;;15.39;90.48;99763.34;5126674;27;19933;-85
2022/08/09 01:40:41;;;;;;;;;;;;;;;15.42;90.35;99762.00;5124832;27;19928;-84
2022/08/09 01:43:07;;;;;;;;;;;;;;;15.42;90.35;99768.31;5129593;27;20021;-83
2022/08/09 01:45:35;;;;;;;;;;;;;;;15.41;90.38;99769.34;5135881;27;20335;-82
2022/08/09 01:48:14;;;;;;;;;;;;;;;15.48;90.29;99772.69;5137857;27;19983;-82
2022/08/09 01:50:42;;;;;;;;;;;;;;;15.49;90.35;99765.34;5136019;27;19949;-81
2022/08/09 01:53:14;;;;;;;;;;;;;;;15.49;90.41;99762.63;5136261;27;19938;-81
2022/08/09 01:55:46;;;;;;;;;;;;;;;15.44;90.39;99755.25;5153733;27;20371;-82
2022/08/09 01:58:14;;;;;;;;;;;;;;;15.42;90.52;99757.41;5135580;27;19933;-81
2022/08/09 02:00:42;;;;;;;;;;;;;;;15.41;90.62;99763.91;5118527;27;19999;-82
2022/08/09 02:03:12;;;;;;;;;;;;;;;15.38;90.62;99767.16;5118823;27;19933;-82
2022/08/09 02:05:39;;;;;;;;;;;;;;;15.36;90.80;99775.56;5135581;27;19958;-82
2022/08/09 02:08:26;;;;;;;;;;;;;;;15.36;90.88;99775.56;5138674;27;19988;-82
2022/08/09 02:11:13;;;;;;;;;;;;;;;15.33;91.02;99772.56;5138644;27;19938;-80
2022/08/09 02:14:03;;;;;;;;;;;;;;;15.32;91.02;99784.53;5124030;27;19971;-82
2022/08/09 02:16:34;;;;;;;;;;;;;;;15.29;90.97;99779.56;5153616;27;19927;-82
2022/08/09 02:19:22;;;;;;;;;;;;;;;15.27;91.05;99776.31;5153546;27;19927;-81
2022/08/09 02:21:50;;;;;;;;;;;;;;;15.25;90.95;99773.03;5134843;27;19927;-82
2022/08/09 02:24:25;;;;;;;;;;;;;;;15.21;90.86;99774.59;5118472;27;20388;-81
2022/08/09 02:26:54;;;;;;;;;;;;;;;15.18;90.84;99784.09;5153250;27;19927;-81
2022/08/09 02:29:24;;;;;;;;;;;;;;;15.16;90.77;99778.91;5135717;27;19931;-82
2022/08/09 02:31:52;;;;;;;;;;;;;;;15.15;90.93;99771.81;5134845;27;19935;-81
2022/08/09 02:34:20;;;;;;;;;;;;;;;15.18;90.91;99790.34;5152916;27;19927;-81
2022/08/09 02:37:08;;;;;;;;;;;;;;;15.19;90.32;99785.72;5137965;27;19927;-83
2022/08/09 02:39:39;;;;;;;;;;;;;;;15.18;90.47;99781.38;5153364;27;19980;-82
2022/08/09 02:42:15;;;;;;;;;;;;;;;15.18;90.41;99790.34;5152887;27;19927;-81
2022/08/09 02:44:49;;;;;;;;;;;;;;;15.22;90.18;99795.25;5153148;27;19927;-81
2022/08/09 02:47:18;;;;;;;;;;;;;;;15.20;89.83;99817.28;5134906;27;19943;-81
2022/08/09 02:49:56;;;;;;;;;;;;;;;15.24;89.45;99812.97;5134825;27;20428;-82
2022/08/09 02:52:34;;;;;;;;;;;;;;;15.29;88.54;99823.06;5135917;27;20413;-83
2022/08/09 02:55:01;;;;;;;;;;;;;;;15.35;88.07;99820.16;5127887;28;19928;-81
2022/08/09 02:57:46;;;;;;;;;;;;;;;15.40;87.94;99816.69;5116946;28;20334;-82
2022/08/09 03:00:38;;;;;;;;;;;;;;;15.42;87.94;99810.97;5132325;28;19927;-83
2022/08/09 03:03:24;;;;;;;;;;;;;;;15.42;87.81;99806.38;5114093;28;19966;-82
2022/08/09 03:06:13;;;;;;;;;;;;;;;15.38;87.54;99795.16;5132255;28;19927;-81
2022/08/09 03:08:42;;;;;;;;;;;;;;;15.38;87.55;99800.63;5132327;28;20343;-80
2022/08/09 03:11:10;;;;;;;;;;;;;;;15.36;87.57;99804.66;5119829;27;20357;-82
2022/08/09 03:13:55;;;;;;;;;;;;;;;15.37;87.44;99811.75;5114568;28;19927;-82
2022/08/09 03:16:29;;;;;;;;;;;;;;;15.49;87.37;99814.31;5114728;28;19934;-82
2022/08/09 03:18:56;;;;;;;;;;;;;;;15.53;87.05;99805.38;5131898;28;19999;-82
2022/08/09 03:21:27;;;;;;;;;;;;;;;15.52;87.08;99801.03;5123640;27;19966;-82
2022/08/09 03:24:02;;;;;;;;;;;;;;;15.54;87.23;99804.28;5152581;27;19942;-81
2022/08/09 03:26:31;;;;;;;;;;;;;;;15.54;86.98;99808.91;5152678;27;20432;-82
2022/08/09 03:29:10;;;;;;;;;;;;;;;15.55;87.03;99803.22;5119300;28;20228;-82
2022/08/09 03:31:49;;;;;;;;;;;;;;;15.65;86.72;99794.34;5119909;27;20381;-82
2022/08/09 03:34:26;;;;;;;;;;;;;;;15.71;86.53;99797.97;5135854;27;20023;-81
2022/08/09 03:36:54;;;;;;;;;;;;;;;15.77;86.36;99803.19;5152649;27;19927;-82
2022/08/09 03:39:28;;;;;;;;;;;;;;;15.82;85.91;99799.66;5135259;27;19927;-81
2022/08/09 03:42:04;;;;;;;;;;;;;;;15.90;85.46;99790.22;5133599;27;19927;-82
2022/08/09 03:44:32;;;;;;;;;;;;;;;15.90;84.75;99788.34;5152589;27;19927;-82
2022/08/09 03:47:01;;;;;;;;;;;;;;;15.91;84.17;99797.31;5136150;27;19970;-82
2022/08/09 03:49:30;;;;;;;;;;;;;;;15.95;84.15;99804.69;5151695;27;19927;-82
2022/08/09 03:52:02;;;;;;;;;;;;;;;16.08;83.82;99810.75;5115624;27;19935;-83
2022/08/09 03:54:31;;;;;;;;;;;;;;;16.15;83.58;99820.34;5125808;27;19927;-82
2022/08/09 03:57:01;;;;;;;;;;;;;;;16.23;83.24;99824.50;5120825;27;19927;-82
2022/08/09 03:59:44;;;;;;;;;;;;;;;16.28;82.76;99813.66;5118616;27;20394;-86
2022/08/09 04:02:22;;;;;;;;;;;;;;;16.36;82.47;99807.69;5143593;27;19927;-84
2022/08/09 04:04:57;;;;;;;;;;;;;;;16.41;82.07;99805.00;5128786;27;20075;-84
2022/08/09 04:07:25;;;;;;;;;;;;;;;16.44;81.80;99800.94;5127039;27;19954;-84
2022/08/09 04:10:12;;;;;;;;;;;;;;;16.50;81.44;99807.22;5146279;27;19927;-84
2022/08/09 04:12:44;;;;;;;;;;;;;;;16.50;81.38;99815.41;5145414;27;20126;-83
2022/08/09 04:15:12;;;;;;;;;;;;;;;16.57;81.22;99818.72;5143596;27;19927;-84
2022/08/09 04:17:59;;;;;;;;;;;;;;;16.58;81.08;99818.44;5139737;27;19931;-82
2022/08/09 04:20:26;;;;;;;;;;;;;;;16.53;80.94;99815.69;5145618;27;19930;-82
2022/08/09 04:22:54;;;;;;;;;;;;;;;16.45;81.20;99808.81;5125110;27;19939;-84
2022/08/09 04:25:21;;;;;;;;;;;;;;;16.43;81.47;99805.56;5126188;27;19957;-83
2022/08/09 04:27:48;;;;;;;;;;;;;;;16.41;81.47;99807.72;5145382;27;19933;-83
2022/08/09 04:30:16;;;;;;;;;;;;;;;16.38;81.65;99810.16;5144211;27;19928;-83
2022/08/09 04:32:46;;;;;;;;;;;;;;;16.41;81.77;99805.00;5139869;27;20026;-87
2022/08/09 04:35:14;;;;;;;;;;;;;;;16.45;81.78;99802.56;5127115;27;20345;-85
2022/08/09 04:37:41;;;;;;;;;;;;;;;16.46;81.87;99798.78;5139487;27;19928;-85
2022/08/09 04:40:13;;;;;;;;;;;;;;;16.45;81.85;99789.75;5134132;27;19987;-84
2022/08/09 04:42:54;;;;;;;;;;;;;;;16.45;81.74;99794.41;5133893;27;19932;-84
2022/08/09 04:45:26;;;;;;;;;;;;;;;16.44;81.74;99790.03;5134088;27;19927;-84
2022/08/09 04:47:58;;;;;;;;;;;;;;;16.41;82.16;99788.66;5112651;27;20317;-84
2022/08/09 04:50:29;;;;;;;;;;;;;;;16.41;82.28;99780.50;5131070;27;19927;-83
2022/08/09 04:53:07;;;;;;;;;;;;;;;16.47;82.28;99778.59;5113390;27;19934;-83
2022/08/09 04:55:39;;;;;;;;;;;;;;;16.57;82.03;99783.28;5130963;27;20166;-83
2022/08/09 04:58:24;;;;;;;;;;;;;;;16.66;81.93;99792.59;5131202;27;20401;-84
2022/08/09 05:00:52;;;;;;;;;;;;;;;16.76;81.70;99778.19;5129907;27;19933;-82
2022/08/09 05:03:22;;;;;;;;;;;;;;;16.86;81.20;99772.81;5146336;27;19955;-82
2022/08/09 05:06:12;;;;;;;;;;;;;;;16.94;81.05;99766.00;5132512;27;20049;-82
2022/08/09 05:08:53;;;;;;;;;;;;;;;17.02;80.46;99766.31;5151027;27;20022;-83
2022/08/09 05:11:28;;;;;;;;;;;;;;;17.14;80.05;99770.72;5151438;27;20393;-84
2022/08/09 05:14:02;;;;;;;;;;;;;;;17.28;80.00;99772.66;5151103;27;19931;-82
2022/08/09 05:16:35;;;;;;;;;;;;;;;17.35;79.43;99774.31;5132532;27;19934;-83
2022/08/09 05:19:09;;;;;;;;;;;;;;;17.43;79.27;99787.41;5133489;27;19949;-83
2022/08/09 05:21:37;;;;;;;;;;;;;;;17.53;79.01;99790.16;5150666;27;19927;-84
2022/08/09 05:24:21;;;;;;;;;;;;;;;17.51;78.34;99790.41;5131936;27;19927;-82
2022/08/09 05:26:50;;;;;;;;;;;;;;;17.46;77.95;99790.41;5150243;27;19927;-84
2022/08/09 05:29:20;;;;;;;;;;;;;;;17.51;78.18;99787.69;5150739;27;19934;-82
2022/08/09 05:31:50;;;;;;;;;;;;;;;17.61;77.97;99786.88;5131600;27;20401;-82
2022/08/09 05:34:24;;;;;;;;;;;;;;;17.72;77.52;99780.34;5131785;27;19970;-83
2022/08/09 05:37:02;;;;;;;;;;;;;;;17.68;77.17;99779.25;5149689;27;19962;-84
2022/08/09 05:39:36;;;;;;;;;;;;;;;17.58;77.11;99781.97;5150286;27;19995;-83
2022/08/09 05:42:13;;;;;;;;;;;;;;;17.60;77.30;99779.81;5138986;27;20158;-83
2022/08/09 05:44:49;;;;;;;;;;;;;;;17.63;77.04;99787.44;5120303;27;19927;-82
2022/08/09 05:47:20;;;;;;;;;;;;;;;17.61;76.85;99792.34;5143933;27;19934;-84
2022/08/09 05:49:49;;;;;;;;;;;;;;;17.60;75.14;99788.00;5149518;27;20038;-83
2022/08/09 05:52:36;;;;;;;;;;;;;;;17.54;74.88;99791.78;5121172;27;19927;-83
2022/08/09 05:55:05;;;;;;;;;;;;;;;17.49;75.08;99786.31;5138571;27;20381;-83
2022/08/09 05:57:36;;;;;;;;;;;;;;;17.50;75.55;99791.53;5135890;27;20030;-83
2022/08/09 06:00:29;;;;;;;;;;;;;;;17.53;75.11;99790.16;5122358;27;20025;-82
2022/08/09 06:03:01;;;;;;;;;;;;;;;17.54;75.83;99786.31;5082756;27;19927;-82
2022/08/09 06:05:30;;;;;;;;;;;;;;;17.50;76.03;99771.59;5131798;27;20021;-84
2022/08/09 06:08:17;;;;;;;;;;;;;;;17.38;76.54;99776.50;5119843;27;19973;-83
2022/08/09 06:10:54;;;;;;;;;;;;;;;17.35;77.16;99785.22;5134089;27;19934;-82
2022/08/09 06:13:23;;;;;;;;;;;;;;;17.19;77.21;99778.91;5094326;27;20014;-84
2022/08/09 06:15:50;;;;;;;;;;;;;;;17.11;77.75;99781.06;5118999;27;20342;-85
2022/08/09 06:18:19;;;;;;;;;;;;;;;17.14;78.17;99782.44;5133871;27;19931;-85
2022/08/09 06:20:50;;;;;;;;;;;;;;;17.26;78.63;99777.56;5141299;27;20297;-82
2022/08/09 06:23:24;;;;;;;;;;;;;;;17.34;78.49;99778.94;5138653;27;19932;-82
2022/08/09 06:26:11;;;;;;;;;;;;;;;17.40;78.81;99785.25;5129170;27;19953;-81
2022/08/09 06:28:39;;;;;;;;;;;;;;;17.52;78.73;99778.44;5115276;27;19927;-87
2022/08/09 06:31:10;;;;;;;;;;;;;;;17.55;78.27;99777.06;5118566;27;19984;-85
2022/08/09 06:33:37;;;;;;;;;;;;;;;17.55;78.52;99779.78;5140767;27;19927;-82
2022/08/09 06:36:08;;;;;;;;;;;;;;;17.55;78.52;99777.88;5143168;27;19928;-85
2022/08/09 06:38:39;;;;;;;;;;;;;;;17.56;78.36;99773.25;5133285;27;19927;-82
2022/08/09 06:41:16;;;;;;;;;;;;;;;17.53;78.06;99779.25;5135311;27;20037;-83
2022/08/09 06:43:46;;;;;;;;;;;;;;;17.50;77.41;99780.59;5112779;27;19967;-83
2022/08/09 06:46:14;;;;;;;;;;;;;;;17.46;77.02;99778.69;4764602;22;10001538;-83
2022/08/09 06:49:01;;;;;;;;;;;;;;;17.39;76.27;99778.94;5061359;28;20417;-82
2022/08/09 06:51:27;;;;;;;;;;;;;;;17.38;76.80;99781.94;5054368;28;19928;-82
2022/08/09 06:53:56;;;;;;;;;;;;;;;17.32;76.57;99787.41;5065495;28;19940;-84
2022/08/09 06:56:27;;;;;;;;;;;;;;;17.24;75.98;99782.47;5051698;28;20362;-83
2022/08/09 06:58:57;;;;;;;;;;;;;;;17.11;75.76;99775.59;5062888;28;19940;-81
2022/08/09 07:01:44;;;;;;;;;;;;;;;17.07;77.65;99779.16;5047858;28;20334;-84
2022/08/09 07:04:25;;;;;;;;;;;;;;;17.14;78.10;99787.06;5059224;28;19956;-82
2022/08/09 07:06:52;;;;;;;;;;;;;;;17.21;78.57;99793.91;5070026;28;20450;-83
2022/08/09 07:09:27;;;;;;;;;;;;;;;17.30;78.25;99789.56;5063886;28;20437;-85
2022/08/09 07:12:14;;;;;;;;;;;;;;;17.43;77.74;99801.06;5015384;28;19997;-83
2022/08/09 07:14:44;;;;;;;;;;;;;;;17.54;77.55;99803.50;5007222;28;19936;-82
2022/08/09 07:17:19;;;;;;;;;;;;;;;17.74;76.92;99812.81;5012386;28;19929;-83
2022/08/09 07:19:50;;;;;;;;;;;;;;;17.98;76.19;99799.50;5020594;28;19983;-83
2022/08/09 07:22:21;;;;;;;;;;;;;;;17.98;75.94;99802.22;5024971;28;19929;-86
2022/08/09 07:25:08;;;;;;;;;;;;;;;18.03;75.56;99799.47;5032637;28;20031;-85
2022/08/09 07:27:40;;;;;;;;;;;;;;;18.12;75.02;99795.09;5015420;28;20523;-84
2022/08/09 07:30:19;;;;;;;;;;;;;;;18.06;74.99;99788.00;5032055;28;19936;-85
2022/08/09 07:32:50;;;;;;;;;;;;;;;18.10;75.00;99783.59;4995767;28;19953;-85
2022/08/09 07:35:18;;;;;;;;;;;;;;;18.28;74.41;99786.88;5012938;28;19987;-85
2022/08/09 07:37:48;;;;;;;;;;;;;;;18.45;74.09;99781.91;4993078;28;20466;-85
2022/08/09 07:40:15;;;;;;;;;;;;;;;18.63;73.49;99778.59;4992398;28;19929;-85
2022/08/09 07:42:53;;;;;;;;;;;;;;;18.63;72.85;99785.94;4959270;28;19930;-85
2022/08/09 07:45:25;;;;;;;;;;;;;;;18.82;72.73;99797.13;5022709;28;19979;-84
2022/08/09 07:48:07;;;;;;;;;;;;;;;18.98;71.80;99804.16;5025740;28;19960;-86
2022/08/09 07:50:55;;;;;;;;;;;;;;;19.34;71.31;99809.44;5015487;28;20399;-87
2022/08/09 07:53:42;;;;;;;;;;;;;;;19.63;70.42;99805.97;5017841;28;19929;-86
2022/08/09 07:56:29;;;;;;;;;;;;;;;19.88;69.44;99797.59;5032309;28;19929;-85
2022/08/09 07:58:56;;;;;;;;;;;;;;;20.11;68.22;99801.50;5032164;28;20036;-85
2022/08/09 08:01:28;;;;;;;;;;;;;;;20.32;67.80;99791.16;5031115;28;19941;-85
2022/08/09 08:04:02;;;;;;;;;;;;;;;20.64;66.59;99792.50;5031140;28;20384;-87
2022/08/09 08:06:36;;;;;;;;;;;;;;;20.88;66.61;99800.69;5030031;28;20092;-84
2022/08/09 08:09:21;;;;;;;;;;;;;;;20.92;66.68;99807.22;5044439;28;19935;-86
2022/08/09 08:12:08;;;;;;;;;;;;;;;20.99;65.86;99804.94;5066241;28;20028;-86
2022/08/09 08:14:55;;;;;;;;;;;;;;;20.62;63.17;99810.34;5042298;28;19936;-86
2022/08/09 08:17:23;;;;;;;;;;;;;;;20.47;62.82;99797.59;5052067;28;19936;-86
2022/08/09 08:20:13;;;;;;;;;;;;;;;20.70;64.24;99798.72;5048076;28;20069;-86
2022/08/09 08:22:41;;;;;;;;;;;;;;;20.82;63.96;99801.88;5052433;28;19928;-87
2022/08/09 08:25:08;;;;;;;;;;;;;;;20.91;63.87;99811.06;5057873;28;19929;-88
2022/08/09 08:27:39;;;;;;;;;;;;;;;21.16;63.51;99812.66;5052696;28;20307;-86
2022/08/09 08:30:09;;;;;;;;;;;;;;;21.26;62.86;99814.47;5050470;28;19928;-84
2022/08/09 08:32:36;;;;;;;;;;;;;;;21.43;62.97;99824.97;5047290;28;19955;-86
2022/08/09 08:35:19;;;;;;;;;;;;;;;21.55;61.50;99814.34;5064447;28;20399;-85
2022/08/09 08:37:49;;;;;;;;;;;;;;;21.80;61.49;99817.81;5048493;28;19978;-84
2022/08/09 08:40:35;;;;;;;;;;;;;;;21.91;61.21;99810.22;5049779;28;20024;-84
2022/08/09 08:43:09;;;;;;;;;;;;;;;21.97;60.36;99809.81;5050441;28;19940;-86
2022/08/09 08:45:49;;;;;;;;;;;;;;;21.91;59.87;99818.47;5051712;28;19928;-82
2022/08/09 08:48:20;;;;;;;;;;;;;;;21.76;60.35;99817.59;5051104;28;19935;-83
2022/08/09 08:50:47;;;;;;;;;;;;;;;21.79;60.07;99813.44;5049399;28;19933;-83
2022/08/09 08:53:19;;;;;;;;;;;;;;;21.74;60.40;99816.25;5050054;28;20338;-82
2022/08/09 08:55:47;;;;;;;;;;;;;;;21.61;60.19;99815.09;5051151;28;20414;-84
2022/08/09 08:58:18;;;;;;;;;;;;;;;21.56;60.24;99824.22;5067661;28;19951;-83
2022/08/09 09:00:53;;;;;;;;;;;;;;;21.65;60.05;99816.13;5052178;28;19929;-84
2022/08/09 09:03:23;;;;;;;;;;;;;;;21.74;60.22;99817.06;5051341;28;20039;-82
2022/08/09 09:06:04;;;;;;;;;;;;;;;21.69;60.20;99819.91;5034403;28;19951;-83
2022/08/09 09:08:38;;;;;;;;;;;;;;;21.65;60.08;99810.66;5050733;28;20082;-82
2022/08/09 09:11:08;;;;;;;;;;;;;;;21.70;59.46;99809.72;5051425;28;20007;-82
2022/08/09 09:13:43;;;;;;;;;;;;;;;22.06;58.63;99810.78;5051106;28;19968;-84
2022/08/09 09:16:28;;;;;;;;;;;;;;;23.15;56.77;99810.38;5050506;28;19935;-85
2022/08/09 09:19:02;;;;;;;;;;;;;;;24.24;53.78;99802.00;5051805;28;19929;-84
2022/08/09 09:22:00;;;;;;;;;;;;;;;24.75;52.06;99797.06;5050833;28;19928;-84
2022/08/09 09:24:38;;;;;;;;;;;;;;;25.07;50.81;99791.16;5051212;28;19955;-85
2022/08/09 09:27:10;;;;;;;;;;;;;;;24.76;51.43;99799.50;5047304;28;19928;-83
2022/08/09 09:30:07;;;;;;;;;;;;;;;25.24;49.93;99793.13;5045938;28;19933;-87
2022/08/09 09:33:03;;;;;;;;;;;;;;;25.58;48.71;99787.97;5048335;28;19929;-85
2022/08/09 09:35:52;;;;;;;;;;;;;;;25.79;47.42;99782.56;5053230;28;19979;-85
2022/08/09 09:38:39;;;;;;;;;;;;;;;25.39;46.97;99791.03;5051157;28;19929;-83
2022/08/09 09:41:06;;;;;;;;;;;;;;;25.24;47.34;99790.38;5051652;28;20316;-84
2022/08/09 09:43:36;;;;;;;;;;;;;;;25.86;46.20;99778.19;5065165;28;20040;-83
2022/08/09 09:46:07;;;;;;;;;;;;;;;25.10;47.95;99781.41;5051786;28;20417;-83
2022/08/09 09:49:06;;;;;;;;;;;;;;;24.43;49.39;99787.97;5050972;28;20416;-83
2022/08/09 09:51:34;;;;;;;;;;;;;;;24.12;50.01;99782.47;5067612;28;19964;-84
2022/08/09 09:54:06;;;;;;;;;;;;;;;24.05;50.31;99782.09;5052015;28;19929;-84
2022/08/09 09:56:49;;;;;;;;;;;;;;;23.81;50.55;99776.94;5052160;28;20355;-83
2022/08/09 09:59:36;;;;;;;;;;;;;;;23.22;51.67;99783.25;5064340;28;20122;-84
2022/08/09 10:02:05;;;;;;;;;;;;;;;23.07;51.77;99781.66;5051584;28;20446;-84
2022/08/09 10:04:36;;;;;;;;;;;;;;;23.03;52.20;99780.63;5051834;28;19935;-85
2022/08/09 10:07:05;;;;;;;;;;;;;;;23.05;52.23;99789.41;5051412;28;19935;-85
2022/08/09 10:09:46;;;;;;;;;;;;;;;23.22;51.97;99786.00;5050946;28;19951;-84
2022/08/09 10:12:22;;;;;;;;;;;;;;;23.52;51.59;99789.16;5051253;28;19928;-84
2022/08/09 10:15:11;;;;;;;;;;;;;;;24.09;49.59;99789.44;5049586;28;19967;-83
2022/08/09 10:18:08;;;;;;;;;;;;;;;24.45;49.32;99774.72;5050291;28;19933;-83
2022/08/09 10:20:37;;;;;;;;;;;;;;;24.07;49.27;99779.84;5031608;28;19936;-83
2022/08/09 10:23:18;;;;;;;;;;;;;;;23.46;50.35;99776.66;5041366;28;19933;-83
2022/08/09 10:25:47;;;;;;;;;;;;;;;23.82;49.80;99784.88;5050210;28;19940;-82
2022/08/09 10:28:34;;;;;;;;;;;;;;;24.63;47.91;99776.41;5044481;28;19929;-81
2022/08/09 10:31:03;;;;;;;;;;;;;;;26.03;45.58;99771.81;5032266;28;19929;-82
2022/08/09 10:33:50;;;;;;;;;;;;;;;27.27;43.10;99780.06;5049217;28;19932;-84
2022/08/09 10:36:35;;;;;;;;;;;;;;;27.05;43.09;99783.94;5048202;28;20306;-82
2022/08/09 10:39:02;;;;;;;;;;;;;;;27.87;41.91;99780.69;5049397;28;19982;-82
2022/08/09 10:41:40;;;;;;;;;;;;;;;28.46;41.02;99779.56;5048733;28;19940;-82
2022/08/09 10:44:08;;;;;;;;;;;;;;;28.61;39.66;99781.69;5047984;28;19936;-82
2022/08/09 10:46:36;;;;;;;;;;;;;;;27.71;40.79;99788.00;5046776;28;19935;-82
2022/08/09 10:49:40;;;;;;;;;;;;;;;27.32;41.00;99781.81;5046332;28;20279;-83
2022/08/09 10:52:19;;;;;;;;;;;;;;;26.29;42.67;99791.09;5044333;28;20276;-83
2022/08/09 10:55:22;;;;;;;;;;;;;;;26.98;42.16;99786.41;5051006;28;20027;-82
2022/08/09 10:57:50;;;;;;;;;;;;;;;26.33;43.16;99781.00;5056172;28;20032;-82
2022/08/09 11:00:32;;;;;;;;;;;;;;;26.38;43.87;99789.13;5054838;28;19935;-81
2022/08/09 11:03:01;;;;;;;;;;;;;;;26.04;44.81;99789.22;5055575;28;20019;-82
2022/08/09 11:06:06;;;;;;;;;;;;;;;25.60;45.01;99786.50;5056205;28;19933;-82
2022/08/09 11:08:43;;;;;;;;;;;;;;;25.64;45.03;99787.47;5057987;28;19929;-83
2022/08/09 11:11:17;;;;;;;;;;;;;;;25.42;44.10;99782.09;5057075;28;19932;-83
2022/08/09 11:13:44;;;;;;;;;;;;;;;25.14;45.27;99781.56;5053568;28;19933;-83
2022/08/09 11:16:34;;;;;;;;;;;;;;;24.80;46.36;99786.69;5056584;28;19933;-83
2022/08/09 11:19:04;;;;;;;;;;;;;;;24.56;47.67;99778.84;5054134;28;19959;-82
2022/08/09 11:21:48;;;;;;;;;;;;;;;24.30;47.74;99788.91;5055017;28;19929;-82
2022/08/09 11:24:54;;;;;;;;;;;;;;;24.14;47.85;99783.78;5067606;28;19936;-83
2022/08/09 11:27:27;;;;;;;;;;;;;;;23.82;48.40;99786.81;5048943;28;20406;-83
2022/08/09 11:30:35;;;;;;;;;;;;;;;23.78;48.45;99790.22;5055594;28;19932;-83
2022/08/09 11:33:07;;;;;;;;;;;;;;;23.88;48.20;99780.06;5050079;28;20040;-83
2022/08/09 11:35:40;;;;;;;;;;;;;;;23.94;47.91;99787.06;5068763;28;20396;-82
2022/08/09 11:38:17;;;;;;;;;;;;;;;24.24;47.37;99790.97;5048649;28;19952;-83
2022/08/09 11:41:12;;;;;;;;;;;;;;;24.69;46.83;99790.06;5051077;28;20322;-84
2022/08/09 11:43:42;;;;;;;;;;;;;;;24.26;47.68;99783.22;5056371;28;19928;-81
2022/08/09 11:46:09;;;;;;;;;;;;;;;23.88;47.84;99788.34;5055957;28;20026;-83
2022/08/09 11:48:48;;;;;;;;;;;;;;;24.07;47.71;99777.09;5048120;28;19971;-82
2022/08/09 11:51:15;;;;;;;;;;;;;;;24.44;47.03;99778.59;5054068;28;19951;-83
2022/08/09 11:54:12;;;;;;;;;;;;;;;24.46;46.82;99770.00;5057193;28;20027;-82
2022/08/09 11:57:17;;;;;;;;;;;;;;;24.57;46.86;99771.38;5057427;28;20032;-83
2022/08/09 12:00:08;;;;;;;;;;;;;;;24.52;46.78;99768.75;5057488;28;19936;-82
2022/08/09 12:02:42;;;;;;;;;;;;;;;24.43;47.53;99783.28;5051753;28;20292;-82
2022/08/09 12:05:17;;;;;;;;;;;;;;;24.34;47.48;99778.88;5072098;28;20462;-82
2022/08/09 12:07:49;;;;;;;;;;;;;;;24.31;47.67;99788.59;5054185;28;19936;-83
2022/08/09 12:10:22;;;;;;;;;;;;;;;24.41;47.32;99788.31;5053983;28;19938;-83
2022/08/09 12:13:05;;;;;;;;;;;;;;;24.57;46.97;99791.47;5052961;28;19929;-82
2022/08/09 12:16:00;;;;;;;;;;;;;;;26.70;44.13;99784.13;5054489;28;19936;-82
2022/08/09 12:18:28;;;;;;;;;;;;;;;29.23;39.63;99781.66;5052430;28;19930;-84
2022/08/09 12:21:00;;;;;;;;;;;;;;;29.44;38.72;99778.69;5052355;28;20015;-84
2022/08/09 12:23:29;;;;;;;;;;;;;;;29.41;38.58;99771.88;5050711;28;19998;-81
2022/08/09 12:26:19;;;;;;;;;;;;;;;29.94;37.87;99774.56;5052050;28;20401;-83
2022/08/09 12:28:53;;;;;;;;;;;;;;;30.85;36.21;99784.88;5052533;28;20027;-82
2022/08/09 12:31:40;;;;;;;;;;;;;;;29.01;38.26;99774.59;5052967;28;20260;-83
2022/08/09 12:34:34;;;;;;;;;;;;;;;26.82;40.87;99780.66;5051647;28;19968;-81
2022/08/09 12:37:02;;;;;;;;;;;;;;;25.57;43.32;99784.38;5048049;28;19928;-82
2022/08/09 12:39:59;;;;;;;;;;;;;;;24.69;45.14;99790.88;5051818;28;19940;-81
2022/08/09 12:42:29;;;;;;;;;;;;;;;24.34;45.60;99781.63;5050344;28;20292;-84
2022/08/09 12:45:05;;;;;;;;;;;;;;;24.05;46.50;99785.66;5049373;28;19928;-82
2022/08/09 12:47:52;;;;;;;;;;;;;;;24.15;46.38;99784.59;5053667;28;19936;-82
2022/08/09 12:50:19;;;;;;;;;;;;;;;24.50;46.11;99782.03;5053084;28;19929;-83
2022/08/09 12:52:54;;;;;;;;;;;;;;;24.80;45.52;99775.66;5052581;28;19944;-83
2022/08/09 12:55:41;;;;;;;;;;;;;;;25.12;44.73;99770.84;5056852;28;19982;-83
2022/08/09 12:58:28;;;;;;;;;;;;;;;25.39;44.27;99768.94;5068703;28;20307;-84
2022/08/09 13:00:55;;;;;;;;;;;;;;;25.44;43.91;99769.56;5068394;28;19960;-83
2022/08/09 13:03:27;;;;;;;;;;;;;;;25.08;43.99;99745.81;5052424;28;19929;-83
2022/08/09 13:06:23;;;;;;;;;;;;;;;25.11;44.32;99762.88;5039997;28;19929;-82
2022/08/09 13:08:57;;;;;;;;;;;;;;;25.17;43.98;99758.84;5032868;28;19933;-82
2022/08/09 13:11:28;;;;;;;;;;;;;;;24.91;44.61;99756.81;5033054;28;20439;-81
2022/08/09 13:13:56;;;;;;;;;;;;;;;24.76;44.76;99755.31;5015338;28;19959;-82
2022/08/09 13:16:45;;;;;;;;;;;;;;;24.79;44.72;99756.66;5042683;28;19928;-81
2022/08/09 13:19:23;;;;;;;;;;;;;;;24.77;44.77;99754.22;5047246;28;19929;-82
2022/08/09 13:22:15;;;;;;;;;;;;;;;24.38;45.04;99761.38;5032247;28;20361;-81
2022/08/09 13:25:06;;;;;;;;;;;;;;;23.86;45.78;99760.28;5031167;28;20284;-83
2022/08/09 13:27:38;;;;;;;;;;;;;;;23.71;45.77;99753.97;5031407;28;19933;-83
2022/08/09 13:30:22;;;;;;;;;;;;;;;23.63;46.10;99765.75;5041631;28;19929;-83
2022/08/09 13:33:19;;;;;;;;;;;;;;;23.53;46.26;99766.00;5049822;28;20035;-82